Terminal Aerodrome Forecast
Issued by NWS

Home | Current Version | Previous Version | Text Only | Print | Product List | Glossary On
Versions: 1 2 3 4 5 6 7 8 9 10 11 12 13 14 15 16 17 18 19 20 21 22 23 24 25
000
FTUS45 KBOU 232019 AAA
TAFAPA
TAF AMD
KAPA 232019Z 2320/2418 32007KT P6SM FEW140 SCT220
     FM240100 18007KT P6SM FEW120 SCT220
     FM240600 22010KT P6SM FEW110 BKN200
     FM241500 20008KT P6SM SCT200=

USA.gov is the U.S. government's official web portal to all federal, state and local government web resources and services.